Time;durP1;ratioP1;P1;durP2;ratioP2;P2;SDS_P1;SDS_P2;PMS_P1;PMS_P2;Temp;Humidity;BMP_temperature;BMP_pressure;BME280_temperature;BME280_humidity;BME280_pressure;Samples;Min_cycle;Max_cycle;Signal;HPM_P1;HPM_P2
2022/08/28 00:00:22;;;;;;;;;8.33;7.00;;;;;20.56;53.60;100942.41;5031487;28;45261;-82
2022/08/28 00:02:48;;;;;;;;;6.33;5.67;;;;;20.52;53.42;100941.63;5048707;28;45287;-82
2022/08/28 00:05:17;;;;;;;;;6.67;6.67;;;;;20.51;54.19;100947.06;5048435;28;44785;-82
2022/08/28 00:07:43;;;;;;;;;6.67;6.67;;;;;20.49;54.20;100952.50;5031399;28;46871;-82
2022/08/28 00:10:11;;;;;;;;;6.67;6.67;;;;;20.47;54.39;100948.94;5014578;28;45965;-83
2022/08/28 00:12:38;;;;;;;;;7.00;7.00;;;;;20.42;54.53;100940.06;5047634;28;44743;-82
2022/08/28 00:15:08;;;;;;;;;6.50;6.00;;;;;20.37;54.70;100936.56;5052737;28;45753;-82
2022/08/28 00:17:34;;;;;;;;;6.00;6.00;;;;;20.32;55.00;100925.88;5038767;28;45395;-82
2022/08/28 00:19:59;;;;;;;;;7.33;7.00;;;;;20.33;54.96;100935.75;5032744;28;45391;-82
2022/08/28 00:22:25;;;;;;;;;7.33;6.00;;;;;20.35;55.41;100938.41;5013877;28;45403;-83
2022/08/28 00:24:51;;;;;;;;;7.00;6.00;;;;;20.32;55.56;100943.88;5015364;28;44875;-82
2022/08/28 00:30:00;;;;;;;;;5.67;5.67;;;;;20.25;55.91;100929.63;5032541;28;44707;-82
2022/08/28 00:32:34;;;;;;;;;8.00;8.00;;;;;20.25;56.00;100942.25;5033209;28;45327;-82
2022/08/28 00:35:01;;;;;;;;;8.00;7.33;;;;;20.23;57.61;100939.59;5033598;28;45636;-82
2022/08/28 00:37:27;;;;;;;;;8.67;8.67;;;;;20.18;56.43;100931.59;5032515;28;45184;-82
2022/08/28 00:39:53;;;;;;;;;7.00;7.00;;;;;20.13;56.87;100936.19;5031874;28;45457;-83
2022/08/28 00:42:19;;;;;;;;;6.00;6.00;;;;;20.16;57.18;100944.25;5032704;28;45375;-83
2022/08/28 00:44:46;;;;;;;;;5.67;4.67;;;;;20.12;57.17;100937.13;5033167;28;45430;-83
2022/08/28 00:47:12;;;;;;;;;7.00;7.00;;;;;20.13;57.27;100946.13;5032598;28;45390;-83
2022/08/28 00:49:46;;;;;;;;;6.00;4.67;;;;;20.11;57.25;100946.13;5014887;28;45665;-83
2022/08/28 00:52:14;;;;;;;;;5.33;5.33;;;;;20.07;57.72;100939.03;5015985;28;44754;-83
2022/08/28 00:54:46;;;;;;;;;6.33;6.33;;;;;20.11;57.92;100940.75;5042974;28;45430;-83
2022/08/28 00:57:17;;;;;;;;;9.33;7.33;;;;;20.09;58.01;100937.19;5053487;28;45640;-83
2022/08/28 00:59:43;;;;;;;;;10.00;9.00;;;;;20.04;57.99;100933.72;5053060;28;44741;-83
2022/08/28 01:02:10;;;;;;;;;8.00;8.00;;;;;20.04;57.81;100938.25;5052944;28;45413;-83
2022/08/28 01:04:36;;;;;;;;;9.00;9.00;;;;;20.03;58.14;100942.72;5052622;28;45524;-83
2022/08/28 01:07:08;;;;;;;;;9.67;9.67;;;;;20.04;58.17;100947.22;5050490;28;48631;-83
2022/08/28 01:09:38;;;;;;;;;10.00;10.00;;;;;20.02;58.27;100957.16;5049824;28;45482;-83
2022/08/28 01:12:09;;;;;;;;;10.67;10.67;;;;;19.94;58.61;100965.41;5031212;28;45456;-83
2022/08/28 01:14:38;;;;;;;;;12.00;10.67;;;;;19.90;58.58;100954.72;5030468;28;45569;-83
2022/08/28 01:17:04;;;;;;;;;9.67;8.00;;;;;19.88;58.79;100962.84;5014352;28;46886;-82
2022/08/28 01:19:38;;;;;;;;;9.67;9.67;;;;;19.86;58.88;100959.28;5030814;28;45524;-82
2022/08/28 01:22:21;;;;;;;;;9.33;9.33;;;;;19.83;59.43;100959.34;5014594;28;45498;-82
2022/08/28 01:24:50;;;;;;;;;10.00;10.00;;;;;19.71;59.32;100949.72;5032012;28;45400;-82
2022/08/28 01:27:15;;;;;;;;;9.00;9.00;;;;;19.72;59.55;100964.09;5031018;28;45924;-82
2022/08/28 01:29:41;;;;;;;;;12.00;10.00;;;;;19.70;59.90;100955.09;5031301;28;45453;-83
2022/08/28 01:32:07;;;;;;;;;10.67;8.67;;;;;19.67;59.88;100965.94;5029456;28;45305;-83
2022/08/28 01:34:33;;;;;;;;;9.33;9.33;;;;;19.63;60.22;100953.44;5030206;28;45536;-83
2022/08/28 01:36:59;;;;;;;;;10.00;10.00;;;;;19.60;60.61;100946.28;5012291;28;45389;-83
2022/08/28 01:39:25;;;;;;;;;10.67;9.33;;;;;19.53;60.85;100942.84;5030932;28;45372;-81
2022/08/28 01:41:53;;;;;;;;;10.33;10.33;;;;;19.53;60.62;100945.53;5031306;28;45474;-82
2022/08/28 01:44:24;;;;;;;;;9.33;9.00;;;;;19.47;60.93;100942.97;5013613;28;45370;-82
2022/08/28 01:46:56;;;;;;;;;10.00;10.00;;;;;19.48;60.99;100941.16;5012614;28;45364;-82
2022/08/28 01:49:23;;;;;;;;;10.00;8.00;;;;;19.47;61.94;100936.66;5012834;28;45381;-83
2022/08/28 01:51:49;;;;;;;;;9.67;9.33;;;;;19.42;61.83;100933.19;5012419;28;45385;-83
2022/08/28 01:54:15;;;;;;;;;10.00;10.00;;;;;19.36;61.84;100926.97;5012911;28;44892;-83
2022/08/28 01:56:43;;;;;;;;;9.00;9.00;;;;;19.33;62.00;100932.44;5013419;28;48206;-83
2022/08/28 01:59:10;;;;;;;;;11.00;8.67;;;;;19.33;62.42;100932.44;5031118;28;45484;-82
2022/08/28 02:01:35;;;;;;;;;11.00;9.00;;;;;19.33;62.24;100935.13;5031066;28;45292;-82
2022/08/28 02:04:03;;;;;;;;;9.33;9.33;;;;;19.26;62.78;100925.38;5013251;28;45532;-82
2022/08/28 02:06:30;;;;;;;;;9.00;9.00;;;;;19.28;62.81;100931.63;5028880;28;47803;-82
2022/08/28 02:08:56;;;;;;;;;12.67;10.00;;;;;19.26;63.04;100938.84;5011182;28;45086;-82
2022/08/28 02:11:23;;;;;;;;;8.67;7.67;;;;;19.27;63.32;100934.34;5026603;28;44779;-83
2022/08/28 02:13:50;;;;;;;;;8.33;8.00;;;;;19.24;63.09;100929.91;5027168;28;45394;-82
2022/08/28 02:16:17;;;;;;;;;11.00;9.00;;;;;19.26;63.29;100933.47;5030429;28;46382;-83
2022/08/28 02:18:43;;;;;;;;;7.00;7.00;;;;;19.18;63.72;100927.31;4996009;28;45375;-82
2022/08/28 02:21:10;;;;;;;;;8.67;8.67;;;;;19.20;63.64;100933.56;5030257;28;45163;-81
2022/08/28 02:23:39;;;;;;;;;9.00;9.00;;;;;19.19;63.56;100931.81;5012149;28;45454;-81
2022/08/28 02:26:05;;;;;;;;;7.00;7.00;;;;;19.15;63.96;100938.19;5029865;28;45415;-82
2022/08/28 02:28:31;;;;;;;;;11.00;11.00;;;;;19.12;64.46;100940.91;5030143;28;45269;-82
2022/08/28 02:30:56;;;;;;;;;6.33;6.33;;;;;19.11;64.34;100942.72;5030763;28;45333;-82
2022/08/28 02:33:21;;;;;;;;;7.33;7.33;;;;;19.08;64.11;100940.06;5030826;28;45339;-82
2022/08/28 02:35:48;;;;;;;;;9.00;9.00;;;;;19.01;64.38;100932.13;5012114;28;46321;-82
2022/08/28 02:38:13;;;;;;;;;8.67;8.67;;;;;19.03;65.02;100939.28;5010993;28;45456;-82
2022/08/28 02:40:40;;;;;;;;;9.33;9.00;;;;;18.95;65.34;100933.13;5029188;28;45962;-82
2022/08/28 02:43:06;;;;;;;;;9.33;7.00;;;;;18.95;65.14;100939.41;5030123;28;45273;-82
2022/08/28 02:45:32;;;;;;;;;6.33;6.33;;;;;18.97;65.27;100934.00;5013193;28;47410;-82
2022/08/28 02:47:57;;;;;;;;;9.33;9.00;;;;;18.99;65.26;100935.75;5030051;28;44884;-82
2022/08/28 02:50:23;;;;;;;;;8.00;8.00;;;;;18.99;65.81;100941.13;5030318;28;45477;-82
2022/08/28 02:52:50;;;;;;;;;8.33;8.33;;;;;18.89;65.81;100923.34;5029674;28;45465;-82
2022/08/28 02:55:18;;;;;;;;;9.00;9.00;;;;;18.93;66.07;100921.50;5024703;28;48856;-82
2022/08/28 02:57:46;;;;;;;;;8.33;8.00;;;;;18.94;66.16;100937.63;4992757;28;45843;-82
2022/08/28 03:00:15;;;;;;;;;7.00;7.00;;;;;18.93;66.00;100935.84;5012097;28;45426;-82
2022/08/28 03:02:41;;;;;;;;;7.00;7.00;;;;;18.93;66.58;100934.97;5011003;28;45262;-83
2022/08/28 03:05:08;;;;;;;;;10.67;9.00;;;;;18.90;66.79;100933.19;5011890;28;45543;-83
2022/08/28 03:07:34;;;;;;;;;9.33;9.33;;;;;18.84;66.93;100927.03;5010517;28;46615;-83
2022/08/28 03:10:00;;;;;;;;;9.33;8.33;;;;;18.87;66.94;100925.19;5011526;28;45329;-82
2022/08/28 03:12:26;;;;;;;;;9.67;8.33;;;;;18.84;67.31;100929.72;5012671;28;45462;-82
2022/08/28 03:14:52;;;;;;;;;7.00;7.00;;;;;18.85;66.92;100932.41;5028216;28;47589;-83
2022/08/28 03:17:19;;;;;;;;;9.00;9.00;;;;;18.79;67.30;100916.34;5013106;28;45415;-83
2022/08/28 03:19:44;;;;;;;;;7.67;7.67;;;;;18.82;67.45;100924.34;5028733;28;45422;-81
2022/08/28 03:22:10;;;;;;;;;7.00;7.00;;;;;18.79;67.73;100924.41;5012947;28;44866;-81
2022/08/28 03:24:36;;;;;;;;;6.67;6.67;;;;;18.76;67.68;100921.72;5030066;28;45620;-82
2022/08/28 03:27:02;;;;;;;;;7.00;7.00;;;;;18.71;67.74;100920.94;5029601;28;45381;-83
2022/08/28 03:29:28;;;;;;;;;6.00;6.00;;;;;18.71;68.09;100931.72;5030755;28;45390;-83
2022/08/28 03:31:54;;;;;;;;;7.00;7.00;;;;;18.69;68.44;100925.47;5029612;28;45474;-83
2022/08/28 03:34:20;;;;;;;;;6.00;6.00;;;;;18.66;68.61;100925.50;5031468;28;46177;-83
2022/08/28 03:36:46;;;;;;;;;6.67;6.67;;;;;18.60;68.69;100915.69;5012085;28;45463;-83
2022/08/28 03:39:12;;;;;;;;;7.00;7.00;;;;;18.61;68.70;100924.69;5029678;28;45372;-83
2022/08/28 03:41:39;;;;;;;;;7.00;7.00;;;;;18.56;68.91;100922.97;5030035;28;45462;-83
2022/08/28 03:44:05;;;;;;;;;8.00;8.00;;;;;18.59;69.53;100928.28;5012140;28;46815;-83
2022/08/28 03:46:32;;;;;;;;;7.67;6.00;;;;;18.59;69.54;100925.59;5027783;28;44947;-83
2022/08/28 03:48:59;;;;;;;;;8.00;8.00;;;;;18.56;69.47;100925.66;5029018;28;44766;-82
2022/08/28 03:51:29;;;;;;;;;8.00;8.00;;;;;18.55;70.10;100929.25;5012335;28;45389;-81
2022/08/28 03:53:56;;;;;;;;;7.00;6.00;;;;;18.48;69.82;100921.28;5030413;28;45082;-82
2022/08/28 03:56:24;;;;;;;;;8.00;6.67;;;;;18.46;70.21;100924.03;5028872;28;45368;-82
2022/08/28 03:58:52;;;;;;;;;8.00;8.00;;;;;18.45;70.09;100930.31;5027396;28;45447;-82
2022/08/28 04:01:19;;;;;;;;;10.00;9.00;;;;;18.41;71.13;100923.19;5011460;28;45534;-82
2022/08/28 04:03:45;;;;;;;;;7.67;7.67;;;;;18.34;71.27;100917.03;5028826;28;45748;-81
2022/08/28 04:06:11;;;;;;;;;6.67;6.33;;;;;18.27;71.29;100923.41;5011139;28;45376;-82
2022/08/28 04:08:37;;;;;;;;;6.67;6.67;;;;;18.29;71.46;100926.97;5047239;28;45323;-82
2022/08/28 04:11:03;;;;;;;;;8.00;8.00;;;;;18.26;71.85;100926.09;5031029;28;45355;-82
2022/08/28 04:13:30;;;;;;;;;9.33;8.00;;;;;18.30;72.02;100935.91;5048217;28;45605;-82
2022/08/28 04:16:03;;;;;;;;;8.33;8.33;;;;;18.21;71.82;100919.91;5031574;28;44915;-82
2022/08/28 04:18:30;;;;;;;;;7.33;7.33;;;;;18.24;72.50;100923.47;5030495;28;45454;-82
2022/08/28 04:21:11;;;;;;;;;7.67;7.33;;;;;18.24;72.71;100931.53;5043394;28;45350;-83
2022/08/28 04:23:38;;;;;;;;;8.67;7.00;;;;;18.22;73.42;100929.75;5043193;28;46947;-83
2022/08/28 04:26:07;;;;;;;;;8.33;7.67;;;;;18.14;72.77;100927.19;5048173;27;45670;-83
2022/08/28 04:28:33;;;;;;;;;7.00;6.33;;;;;18.17;73.08;100940.59;5048409;28;45786;-82
2022/08/28 04:30:59;;;;;;;;;6.33;6.33;;;;;18.14;73.51;100928.09;5030719;28;45851;-82
2022/08/28 04:33:26;;;;;;;;;10.33;8.33;;;;;18.13;73.38;100931.66;5046431;28;46641;-82
2022/08/28 04:35:52;;;;;;;;;7.33;6.67;;;;;18.15;74.20;100939.72;5047406;28;45478;-82
2022/08/28 04:38:18;;;;;;;;;7.33;7.33;;;;;18.01;74.60;100921.06;5061636;27;45563;-83
2022/08/28 04:40:44;;;;;;;;;8.00;8.00;;;;;18.09;74.55;100935.31;5047252;28;45375;-82
2022/08/28 04:43:10;;;;;;;;;7.00;7.00;;;;;18.10;74.67;100942.50;5047241;27;46159;-82
2022/08/28 04:45:40;;;;;;;;;5.67;5.67;;;;;18.05;74.80;100933.59;5046516;28;45652;-83
2022/08/28 04:48:06;;;;;;;;;5.33;5.33;;;;;18.05;74.72;100948.84;5046676;28;45359;-82
2022/08/28 04:50:33;;;;;;;;;10.00;8.67;;;;;18.04;74.83;100947.97;5045355;28;45276;-82
2022/08/28 04:52:58;;;;;;;;;7.67;6.33;;;;;18.05;74.69;100959.63;5044827;28;46989;-80
2022/08/28 04:55:24;;;;;;;;;7.33;7.00;;;;;18.02;75.26;100944.41;5027133;28;45625;-82
2022/08/28 04:57:50;;;;;;;;;6.67;6.67;;;;;18.01;75.42;100948.00;5026775;28;45443;-83
2022/08/28 05:00:16;;;;;;;;;8.33;8.00;;;;;18.04;75.39;100956.03;5045593;28;44948;-82
2022/08/28 05:02:43;;;;;;;;;8.33;7.00;;;;;18.01;76.35;100955.19;5045924;28;46753;-82
2022/08/28 05:05:10;;;;;;;;;7.00;7.00;;;;;18.03;75.88;100964.13;5048077;28;45407;-82
2022/08/28 05:07:36;;;;;;;;;7.00;7.00;;;;;18.01;76.00;100969.53;5049663;28;44901;-82
2022/08/28 05:10:02;;;;;;;;;8.00;8.00;;;;;17.99;76.25;100963.25;5049650;28;45339;-82
2022/08/28 05:12:28;;;;;;;;;8.00;7.67;;;;;17.95;76.21;100956.16;5032115;28;46712;-81
2022/08/28 05:14:53;;;;;;;;;9.67;7.33;;;;;18.00;76.32;100962.38;5032064;28;45944;-83
2022/08/28 05:17:19;;;;;;;;;8.33;7.67;;;;;18.03;76.33;100973.09;5048512;28;45445;-82
2022/08/28 05:19:44;;;;;;;;;8.00;8.00;;;;;18.04;76.51;100974.88;5048215;28;45292;-82
2022/08/28 05:22:10;;;;;;;;;11.67;10.33;;;;;18.01;76.55;100968.63;5049920;28;45358;-82
2022/08/28 05:24:39;;;;;;;;;8.00;8.00;;;;;17.96;76.63;100966.91;5031138;28;45708;-83
2022/08/28 05:27:06;;;;;;;;;7.67;7.33;;;;;17.98;76.99;100965.06;5049778;28;45481;-82
2022/08/28 05:29:32;;;;;;;;;8.00;8.00;;;;;18.01;76.57;100969.53;5049060;28;45458;-82
2022/08/28 05:31:57;;;;;;;;;8.33;8.33;;;;;18.07;77.47;100974.81;5048360;28;45331;-83
2022/08/28 05:34:23;;;;;;;;;7.33;6.33;;;;;18.09;76.86;100983.75;5048886;28;45419;-83
2022/08/28 05:36:48;;;;;;;;;7.67;7.67;;;;;18.15;77.23;100980.09;5049719;28;45402;-82
2022/08/28 05:39:15;;;;;;;;;9.00;8.00;;;;;18.16;77.03;100973.84;5046772;28;45410;-82
2022/08/28 05:41:43;;;;;;;;;8.67;8.00;;;;;18.27;76.65;100984.44;5048777;28;47149;-81
2022/08/28 05:44:18;;;;;;;;;6.33;6.33;;;;;18.29;77.16;100985.31;5049657;28;45477;-81
2022/08/28 05:46:48;;;;;;;;;10.33;9.00;;;;;18.35;76.39;100990.59;5031828;28;45331;-81
2022/08/28 05:49:16;;;;;;;;;6.00;6.00;;;;;18.36;76.71;100984.28;5031263;28;45699;-82
2022/08/28 05:51:43;;;;;;;;;9.00;9.00;;;;;18.42;76.63;100989.63;5049492;28;45396;-82
2022/08/28 05:54:09;;;;;;;;;7.00;7.00;;;;;18.39;76.66;100971.69;5048025;28;45421;-82
2022/08/28 05:56:37;;;;;;;;;9.33;7.33;;;;;18.57;76.45;100985.81;5048739;28;45501;-82
2022/08/28 05:59:04;;;;;;;;;9.33;7.00;;;;;18.61;75.79;100975.88;5048394;28;45396;-82
2022/08/28 06:01:32;;;;;;;;;9.33;7.67;;;;;18.74;75.53;100974.75;5031140;28;46853;-83
2022/08/28 06:04:01;;;;;;;;;8.33;7.00;;;;;18.91;75.19;100983.50;5048663;28;45489;-82
2022/08/28 06:06:29;;;;;;;;;10.00;8.00;;;;;19.03;74.59;100990.50;5050923;28;45458;-82
2022/08/28 06:09:00;;;;;;;;;8.00;8.00;;;;;19.13;74.53;100985.84;5050189;28;45505;-82
2022/08/28 06:11:27;;;;;;;;;7.33;7.33;;;;;19.21;74.11;100986.59;5031672;28;45178;-82
2022/08/28 06:13:53;;;;;;;;;8.00;6.67;;;;;19.29;75.35;100992.75;5048002;28;46161;-83
2022/08/28 06:16:18;;;;;;;;;7.67;7.67;;;;;19.22;73.93;100988.34;5031012;28;44756;-83
2022/08/28 06:18:45;;;;;;;;;7.67;7.67;;;;;19.31;74.73;100984.59;5028171;28;45916;-83
2022/08/28 06:21:11;;;;;;;;;8.33;8.33;;;;;19.34;73.73;100990.84;5029727;28;46034;-83
2022/08/28 06:23:36;;;;;;;;;7.00;7.00;;;;;19.43;73.08;100994.28;5011725;28;45598;-83
2022/08/28 06:26:05;;;;;;;;;7.00;7.00;;;;;19.51;73.12;100992.31;5028682;28;45514;-82
2022/08/28 06:28:31;;;;;;;;;6.33;6.33;;;;;19.64;72.47;100998.41;5011814;28;45653;-83
2022/08/28 06:31:00;;;;;;;;;9.67;7.33;;;;;19.74;72.39;100984.72;5030572;28;45393;-83
2022/08/28 06:33:32;;;;;;;;;8.00;8.00;;;;;19.83;71.88;100988.16;5028634;28;45301;-83
2022/08/28 06:35:58;;;;;;;;;8.67;7.33;;;;;19.89;71.56;100982.63;5029900;28;44830;-82
2022/08/28 06:38:25;;;;;;;;;8.67;7.67;;;;;20.05;70.98;101005.69;5028562;28;45344;-83
2022/08/28 06:40:54;;;;;;;;;11.67;9.00;;;;;20.12;70.86;101004.63;5027138;28;45466;-83
2022/08/28 06:43:23;;;;;;;;;11.00;9.67;;;;;20.24;70.28;101006.19;5027302;28;45470;-83
2022/08/28 06:45:53;;;;;;;;;8.67;7.33;;;;;20.29;69.75;101003.38;5009693;28;45752;-83
2022/08/28 06:48:19;;;;;;;;;9.00;7.00;;;;;20.30;69.61;100992.56;5027007;28;45467;-83
2022/08/28 06:50:54;;;;;;;;;9.33;8.67;;;;;20.27;70.43;100989.03;5009391;28;47310;-84
2022/08/28 06:53:26;;;;;;;;;7.00;7.00;;;;;20.33;69.95;101003.28;5025624;28;45406;-84
2022/08/28 06:56:06;;;;;;;;;11.00;10.00;;;;;20.49;69.78;100997.53;5010211;28;45426;-84
2022/08/28 06:58:32;;;;;;;;;9.33;9.33;;;;;20.65;69.17;101000.81;5029698;28;45339;-82
2022/08/28 07:01:10;;;;;;;;;8.00;8.00;;;;;20.67;68.30;101004.38;5028459;28;47777;-82
2022/08/28 07:03:36;;;;;;;;;7.00;7.00;;;;;20.62;68.70;100990.06;5029196;28;45479;-84
2022/08/28 07:06:03;;;;;;;;;7.33;7.33;;;;;20.65;68.54;100996.28;5029849;28;45568;-83
2022/08/28 07:08:31;;;;;;;;;7.67;7.33;;;;;20.74;68.30;101003.28;5030243;28;45437;-83
2022/08/28 07:11:12;;;;;;;;;10.00;8.67;;;;;20.81;67.91;100999.50;5028727;28;46991;-82
2022/08/28 07:13:39;;;;;;;;;9.67;8.67;;;;;20.76;68.10;100993.31;5046309;28;45521;-83
2022/08/28 07:16:04;;;;;;;;;9.33;8.00;;;;;20.73;68.67;100998.81;5028478;28;45495;-84
2022/08/28 07:18:31;;;;;;;;;8.00;7.00;;;;;20.72;67.62;101003.34;5046646;28;45830;-83
2022/08/28 07:20:59;;;;;;;;;7.00;7.00;;;;;20.71;67.67;101011.47;5046793;28;45499;-83
2022/08/28 07:23:27;;;;;;;;;8.00;7.67;;;;;20.70;67.94;101009.69;5046008;28;45388;-83
2022/08/28 07:25:53;;;;;;;;;8.00;8.00;;;;;20.74;67.83;101011.38;5041161;28;45423;-83
2022/08/28 07:28:19;;;;;;;;;8.00;8.00;;;;;20.70;67.50;100994.38;5029570;28;45504;-82
2022/08/28 07:30:44;;;;;;;;;11.00;9.33;;;;;20.79;67.63;101004.06;5045569;28;46655;-82
2022/08/28 07:33:10;;;;;;;;;6.00;6.00;;;;;20.84;67.64;101006.66;5046881;28;44755;-84
2022/08/28 07:35:35;;;;;;;;;10.00;9.33;;;;;20.89;67.42;101015.56;5029202;28;45423;-84
2022/08/28 07:38:01;;;;;;;;;7.33;7.33;;;;;21.00;67.10;101020.69;5047456;28;45397;-83
2022/08/28 07:40:27;;;;;;;;;10.00;8.67;;;;;21.07;67.04;101003.41;5044968;28;47388;-81
2022/08/28 07:45:36;;;;;;;;;9.00;9.00;;;;;21.12;66.60;101006.84;5047041;28;45386;-84
2022/08/28 07:48:06;;;;;;;;;8.33;8.33;;;;;21.19;66.11;101013.91;5046922;28;45343;-82
2022/08/28 07:50:31;;;;;;;;;8.33;6.67;;;;;21.27;66.52;101005.56;5035848;28;46799;-83
2022/08/28 07:52:57;;;;;;;;;6.67;6.67;;;;;21.27;65.88;101011.88;5047200;28;45891;-83
2022/08/28 07:55:23;;;;;;;;;8.00;7.67;;;;;21.31;65.96;101007.25;5047395;28;45320;-83
2022/08/28 07:57:48;;;;;;;;;7.33;7.33;;;;;21.31;66.30;101001.84;5029690;28;45296;-82
2022/08/28 08:00:14;;;;;;;;;8.33;8.33;;;;;21.40;65.68;101006.16;5046975;28;45306;-82
2022/08/28 08:02:39;;;;;;;;;8.67;8.67;;;;;21.59;65.26;101020.97;5048327;28;45447;-82
2022/08/28 08:05:05;;;;;;;;;10.00;9.00;;;;;21.70;64.55;101016.16;5030008;28;45465;-82
2022/08/28 08:07:32;;;;;;;;;10.67;10.00;;;;;21.68;64.32;101017.16;5043388;28;45443;-82
2022/08/28 08:09:58;;;;;;;;;9.67;8.00;;;;;21.68;64.42;101022.56;5028087;28;46992;-83
2022/08/28 08:12:23;;;;;;;;;7.33;7.33;;;;;21.60;64.41;101014.66;5026888;28;45268;-83
2022/08/28 08:14:49;;;;;;;;;10.00;8.67;;;;;21.57;64.78;101009.31;5045903;28;45297;-84
2022/08/28 08:17:14;;;;;;;;;9.00;9.00;;;;;21.62;64.77;101023.63;5045093;28;45638;-83
2022/08/28 08:19:40;;;;;;;;;10.33;8.67;;;;;21.63;63.88;101019.97;5045292;28;45396;-83
2022/08/28 08:22:07;;;;;;;;;11.67;10.67;;;;;21.68;63.77;101023.44;5028351;28;45383;-83
2022/08/28 08:24:32;;;;;;;;;8.00;8.00;;;;;21.71;63.63;101020.66;5028269;28;45368;-82
2022/08/28 08:27:00;;;;;;;;;11.67;10.00;;;;;21.70;63.74;101021.59;5045230;28;45896;-83
2022/08/28 08:29:30;;;;;;;;;9.00;9.00;;;;;21.82;63.82;101031.19;5045975;28;47282;-84
2022/08/28 08:32:01;;;;;;;;;13.00;10.00;;;;;21.82;63.23;101020.34;5044073;28;45806;-84
2022/08/28 08:34:28;;;;;;;;;10.67;10.67;;;;;21.84;62.68;101025.75;5046493;28;44698;-84
2022/08/28 08:36:53;;;;;;;;;9.67;9.67;;;;;21.81;63.03;101025.81;5046752;28;45492;-82
2022/08/28 08:39:18;;;;;;;;;6.67;6.67;;;;;21.90;62.64;101029.16;5048903;28;45363;-83
2022/08/28 08:41:52;;;;;;;;;11.67;10.33;;;;;21.93;62.55;101017.34;5042430;28;45408;-85
2022/08/28 08:44:35;;;;;;;;;13.33;12.67;;;;;21.95;62.60;101023.59;5039271;28;44834;-84
2022/08/28 08:47:20;;;;;;;;;11.67;11.00;;;;;22.00;62.68;101023.47;5039305;28;45378;-83
2022/08/28 08:49:56;;;;;;;;;11.67;10.33;;;;;22.00;63.08;101024.38;5030941;28;45738;-81
2022/08/28 08:52:30;;;;;;;;;11.67;10.33;;;;;22.03;62.98;101024.25;5038970;28;45395;-83
2022/08/28 08:58:27;;;;;;;;;10.33;10.33;;;;;22.10;62.66;101009.63;5043359;28;45430;-86
2022/08/28 09:01:35;;;;;;;;;11.00;11.00;;;;;22.09;62.40;101007.81;5037221;28;45418;-86
2022/08/28 09:04:33;;;;;;;;;12.00;11.00;;;;;22.12;62.66;101018.59;5039974;28;44836;-86
2022/08/28 09:07:06;;;;;;;;;10.00;10.00;;;;;22.21;62.34;101021.97;5033440;28;44866;-85
2022/08/28 09:13:11;;;;;;;;;13.00;12.00;;;;;22.35;61.42;101019.75;5019951;28;46001;-74
2022/08/28 09:19:30;;;;;;;;;12.00;10.33;;;;;22.60;61.31;101010.84;4825135;27;8619582;-74
2022/08/28 09:21:55;;;;;;;;;10.00;9.00;;;;;22.63;60.33;101008.06;5096265;27;45939;-75
2022/08/28 09:24:28;;;;;;;;;13.00;11.33;;;;;22.63;60.46;101018.91;5096647;27;45420;-75
2022/08/28 09:26:58;;;;;;;;;11.00;10.33;;;;;22.63;60.14;101008.94;5096127;27;45480;-76
2022/08/28 09:29:38;;;;;;;;;13.00;11.67;;;;;22.68;60.13;101016.91;5114747;27;45548;-76
2022/08/28 09:32:28;;;;;;;;;13.67;12.00;;;;;22.64;59.69;101016.13;5113403;27;45567;-75
2022/08/28 09:35:15;;;;;;;;;12.67;12.67;;;;;22.63;59.78;101006.22;5114771;27;45955;-75
2022/08/28 09:37:42;;;;;;;;;16.33;15.00;;;;;22.63;59.32;101002.63;5096040;27;45511;-74
2022/08/28 09:43:27;;;;;;;;;15.67;14.00;;;;;22.68;59.93;101001.56;5113647;27;45475;-75
2022/08/28 09:46:00;;;;;;;;;13.33;13.33;;;;;22.75;59.68;101010.38;5113814;27;45570;-74
2022/08/28 09:48:32;;;;;;;;;16.67;15.33;;;;;22.80;59.36;101012.94;5095543;27;45429;-75
2022/08/28 09:51:04;;;;;;;;;14.33;13.67;;;;;22.76;59.24;101004.91;5113734;27;46162;-74
2022/08/28 09:53:37;;;;;;;;;15.33;14.33;;;;;22.79;59.18;101003.91;5095378;27;45416;-73
2022/08/28 09:56:21;;;;;;;;;18.33;14.33;;;;;22.84;58.61;100995.63;5113866;27;45474;-73
2022/08/28 09:58:58;;;;;;;;;14.33;12.33;;;;;22.92;59.06;101001.69;5113807;27;45443;-73
2022/08/28 10:01:41;;;;;;;;;13.33;13.33;;;;;22.95;58.61;100993.44;5113139;27;45535;-73
2022/08/28 10:04:16;;;;;;;;;16.33;16.33;;;;;23.06;58.17;100995.81;5113396;27;45711;-74
2022/08/28 10:07:05;;;;;;;;;12.67;11.33;;;;;23.07;57.76;101011.19;5113637;27;45459;-74
2022/08/28 10:09:59;;;;;;;;;14.67;14.67;;;;;23.04;57.94;100998.59;5114284;27;45447;-74
2022/08/28 10:12:49;;;;;;;;;14.00;12.33;;;;;22.98;58.19;100990.63;5113865;27;45528;-74
2022/08/28 10:15:36;;;;;;;;;14.33;14.33;;;;;23.03;58.25;100993.25;5113120;27;45447;-74
2022/08/28 10:18:34;;;;;;;;;12.00;12.00;;;;;23.12;58.44;100991.06;5112723;27;45482;-73
2022/08/28 10:21:35;;;;;;;;;13.33;12.00;;;;;23.35;57.41;100995.72;5113836;27;45357;-73
2022/08/28 10:24:25;;;;;;;;;13.67;13.00;;;;;23.49;57.40;100997.97;5091436;27;46872;-73
2022/08/28 10:26:56;;;;;;;;;14.67;11.67;;;;;23.55;56.82;100984.16;5113154;27;45035;-73
2022/08/28 10:29:47;;;;;;;;;9.67;9.67;;;;;23.60;56.33;100988.53;5088840;27;45482;-73
2022/08/28 10:32:50;;;;;;;;;11.00;11.00;;;;;23.66;56.70;100986.47;5081658;27;45566;-73
2022/08/28 10:35:30;;;;;;;;;13.33;12.33;;;;;23.75;55.61;100991.59;5065211;27;45342;-73
2022/08/28 10:38:31;;;;;;;;;14.33;14.00;;;;;23.76;54.80;100981.59;5099680;27;45400;-73
2022/08/28 10:41:16;;;;;;;;;18.50;16.00;;;;;23.74;54.63;100984.38;4999939;28;45764;-73
2022/08/28 10:43:47;;;;;;;;;9.00;9.00;;;;;23.72;55.42;100985.38;5017284;28;45581;-73
2022/08/28 10:46:20;;;;;;;;;16.33;15.33;;;;;23.80;54.91;100982.41;5016630;28;46155;-73
2022/08/28 10:48:54;;;;;;;;;9.00;9.00;;;;;23.85;55.14;100980.41;5016926;28;45451;-73
2022/08/28 10:51:20;;;;;;;;;16.67;12.33;;;;;23.83;54.57;100979.56;5016997;28;45890;-74
2022/08/28 10:53:56;;;;;;;;;10.67;10.67;;;;;23.78;54.78;100989.72;5016813;28;45585;-73
2022/08/28 10:56:32;;;;;;;;;13.67;13.33;;;;;23.79;54.40;100980.63;5000094;28;46088;-73
2022/08/28 10:58:58;;;;;;;;;16.00;13.67;;;;;23.85;54.12;100985.81;5016361;28;45615;-73
2022/08/28 11:01:34;;;;;;;;;14.33;13.33;;;;;23.95;53.83;100992.69;5000993;28;45415;-73
2022/08/28 11:04:07;;;;;;;;;14.00;12.67;;;;;24.02;54.25;100986.09;5017155;28;45602;-73
2022/08/28 11:07:01;;;;;;;;;15.00;14.00;;;;;24.03;53.56;100987.84;4999987;28;47710;-73
2022/08/28 11:09:38;;;;;;;;;12.33;11.67;;;;;24.05;53.23;100982.38;5016539;28;45374;-73
2022/08/28 11:12:08;;;;;;;;;13.67;13.67;;;;;24.08;53.12;100977.69;5000663;28;45531;-73
2022/08/28 11:14:37;;;;;;;;;16.33;14.33;;;;;24.15;51.76;100973.78;5001614;28;45471;-74
2022/08/28 11:17:04;;;;;;;;;16.00;15.67;;;;;24.13;52.41;100975.69;5047334;27;45508;-74
2022/08/28 11:20:03;;;;;;;;;14.67;14.67;;;;;24.13;51.09;100977.53;5099337;27;45604;-72
2022/08/28 11:22:36;;;;;;;;;13.33;11.33;;;;;24.15;51.88;100968.34;5100928;27;45465;-74
2022/08/28 11:25:17;;;;;;;;;12.00;10.33;;;;;24.35;51.81;100972.13;5082436;27;45558;-73
2022/08/28 11:28:14;;;;;;;;;12.67;11.00;;;;;24.50;50.18;100970.66;5081718;27;47961;-73
2022/08/28 11:30:41;;;;;;;;;11.67;10.67;;;;;24.48;50.48;100961.63;5081497;27;45682;-74
2022/08/28 11:33:29;;;;;;;;;12.00;12.00;;;;;24.56;49.99;100956.81;5099154;27;45404;-74
2022/08/28 11:35:56;;;;;;;;;12.33;12.33;;;;;24.72;50.39;100960.69;5099514;27;45338;-74
2022/08/28 11:38:40;;;;;;;;;10.00;9.67;;;;;24.98;48.76;100963.25;5080784;27;45405;-75
2022/08/28 11:41:58;;;;;;;;;11.00;11.00;;;;;25.18;49.39;100965.13;5098073;27;45388;-73
2022/08/28 11:44:27;;;;;;;;;10.67;10.67;;;;;25.41;48.25;100961.44;4991369;28;45512;-73
2022/08/28 11:46:56;;;;;;;;;11.00;11.00;;;;;25.50;48.32;100971.91;4980082;28;45565;-73
2022/08/28 11:49:27;;;;;;;;;5.67;5.67;;;;;25.50;47.99;100967.34;4996290;28;45546;-74
2022/08/28 11:52:12;;;;;;;;;13.33;13.33;;;;;25.59;47.85;100979.66;4996605;28;45556;-73